انتخاب استان
  • All
  • آذربايجان شرقی
  • آذربايجان غربی
  • اردبيل
  • اصفهان
  • البرز
  • ايلام
  • بوشهر
  • تهران
  • چارمحال بختیاری
  • خراسان جتوبی
  • خراسان رضوی
  • خراسان شمالی
  • خوزستان
  • زنجان
  • سمنان
  • سيستان و بلوجستان
  • فارس
  • قزوین
  • قم
  • کردستان
  • کرمان
  • کرمانشاه
  • کهگيلويه بويراحمد
  • گلستان
  • گيلان
  • لرستان
  • مازندران
  • متفرقه
  • مرکزی
  • نیروی هوایی
  • هرمزگان
  • همدان
  • يزد
ساعت گذشتهنمایش خطاهای
مجموع خطاهای دریافتی 8
pp1pp
لیست خطاهای دریافتی طی 3 ساعت گذشته از 2017-12-15 16:25:12.0 تا 2017-12-15 19:25:12.0
نام استان
کد ایستگاه
تاریخ پیام
متن پیام
خطای اتفاق افتاده
pp1pp
تهران
OSDI
2017-12-15 19:00:00.0
FTIR42 OIII 151900
TAF OKBK 151045Z 1512/1618 31010KT 7000 NSC
TEMPO 1518/1604 VRB03KT 4000 BR=
TAF OBBI 151700Z 1518/1700 17007KT CAVOK
BECMG 1523/1601 31012KT PROB30 TEMPO 1601/1607 5000 DU NSC=
TAF OTBD 151703Z 1518/1624 12008KT CAVOK
PROB30 TEMPO 1600/1604 5000 HZ
BECMG 1602/1604 33008KT 8000 FEW030 SCT100
BECMG 1610/1612 05007KT BECMG 1616/1618 33009KT
PROB30 TEMPO 1618/1624 6000 -RA SCT030 BKN100=
TAF OMDB 151656Z 1518/1700 14013KT 8000 NSC
BECMG 1607/1609 02015KT PROB30
TEMPO 1609/1620 VRB20G35KT 1500 TSRA BLDU SCT040CB
BECMG 1617/1619 09007KT=
TAF OMSJ 151656Z 1518/1700 14013KT 8000 NSC
BECMG 1607/1609 02015KT
PROB30 TEMPO 1608/1620 VRB20G35KT 1500 TSRA BLDU SCT040CB
BECMG 1616/1618 09007KT=
TAF OMRK 151656Z 1518/1700 12012KT 8000 FEW040
BECMG 1606/1608 01015KT
PROB30 TEMPO 1607/1620 VRB20G35KT 1500 TSRA BLDU SCT040CB
BECMG 1615/1617 09005KT=
TAF OSDI 1518/1624 VRB03KT CAVOK
BECMG 1600/1602 3000 BR BECMG 1603/1606 0200 FG
BECMG 1609/1611 23010KT 9999 FEW030=
TAF LTBA 151640Z 1518/1624 20012KT CAVOK
BECMG 1600/1604 20020G32KT
BECMG 1612/1615 SCT035 BKN100
BECMG 1615/1618 -SHRA=
TAF LTAC 151640Z 1518/1618 VRB02KT 0200 FZFG VV001
BECMG 1600/1602 1000 BCFG BKN004
PROB30 1603/1606 0500 FZFG BKN002
BECMG 1606/1609 8000 SCT040=
TAF UDYZ 151708Z 1518/1618 04006KT 2000 BR NSC
TEMPO 1521/1606 0600 FZFG VV002=
زمان هدر و متن پيام سازگار نيستند
تهران
LOKT
2017-12-15 19:00:00.0
SAIR33 OIII 151900
METAR ALKK 151850Z 11002KT 8000 FEW040 SCT100 04/M06 Q1022=
METAR ESED 151900Z NIL=
METAR ESEK 151900Z NIL=
METAR KEKL 151854Z 00000KT CAVOK 02/M03 Q1019=
METAR KEKP 151852Z 00000KT CAVOK 07/01 Q1021=
METAR KEKR 151850Z 00000KT CAVOK 03/M01 Q1020=
METAR KHMF 151900Z NIL=
METAR KHMG 151900Z NIL=
METAR KHMH 151850Z 31006KT CAVOK M02/M08 Q1021=
METAR KORG 151851Z 19002KT CAVOK 02/M07 Q1022=
METAR LOKD 151850Z AUTO 04008KT //// // ////// 10/05 Q1020=
METAR LOKI 151900Z NIL=
METAR LOKT 151850Z AUTO 18002KT //// // ////// M01/M03 Q0892=
METAR LONO 151900Z NIL=
METAR COR MAAA 151900Z 00000KT CAVOK 02/M05 Q1021=
METAR MASA 151900Z 00000KT CAVOK 06/04 Q1022=
METAR MASK 151900Z NIL=
METAR OICC 151850Z 00000KT CAVOK 02/M05 Q1021 A3015=
METAR OICI 151900Z 12004KT CAVOK 05/01 Q1022 A3019=
METAR OICJ 151850Z AUTO 34002KT //// // ////// 03/M02 Q1022=
METAR OICK 151850Z 00000KT CAVOK 04/M00 Q1021=
METAR OICM 151850Z AUTO 03002KT //// // ////// 13/M11 Q////=
METAR OIFK 151900Z 00000KT CAVOK 03/M07 Q1020=
METAR OIHH 151850Z 14004KT CAVOK M03/M05 Q1021=
METAR OIHM 151851Z 13006KT CAVOK 01/M05 Q1023=
METAR OIHS 151900Z NIL=
METAR OIID 151900Z NIL=
METAR OIHQ 151853Z 00000KT CAVOK M01/M03 Q1021=
METAR OIIE 151900Z 00000KT CAVOK 03/M08 Q1021 NOSIG=
METAR OIII 151900Z 30004KT CAVOK 04/M06 Q1021 A3016 NOSIG=
METAR OIIS 151900Z 00000KT CAVOK 03/M06 Q1021=
METAR OIIU 151900Z NIL=
METAR OIMD 151853Z AUTO /////KT //// // ////// 04/M08 Q1019=
METAR OIMQ 151850Z AUTO 07006KT //// // ////// 06/M07 Q1021=
METAR QOQM 151851Z 26004KT CAVOK 00/M07 Q1021=
METAR SESG 151900Z NIL=
METAR TETB 151850Z AUTO 00000KT //// // ////// M03/M09 Q1022=
METAR TETF 151850Z AUTO 07002KT //// // ////// M04/M09 Q1022=
METAR OIYR 151850Z AUTO 16004KT //// // ////// 04/M11 Q1021=
METAR TETG 151850Z AUTO 00000KT //// // ////// 02/M05 Q1021=
METAR YAYT 151900Z NIL=
فشار سطح دريا خارج از حداست (900 تا 1058)
تهران
ILID
2017-12-15 19:00:00.0
SAIR34 OIII 151900 RRA
METAR ILID 1519000Z 00000KT 9999 FEW040 15/08 Q1020=
زمان خطا دارد
خوزستان
40812
2017-12-15 18:00:00.0
SMIR40 OIAW 151800
AAXX 15181
40794 12660 80609 10139 20099 30077 40176 58002 60001 8452/ 333
55005 20907 84640 88459 555 10118 29077=
40810 11958 20604 10149 20108 30158 40167 51009 60021 70500 82030
333 55035 82360 555 10127 29076=
40811 12960 00605 10147 20098 30131 40157 55000 60001 333 55003
20438 555 10122 29073=
40812 11656 83603 10128 20101 39796 40175 58005 60151 76066
8492/ 55004 81935 83640 88557 555 10114 29083=
40813 NIL=
40831 12960 03502 10114 20037 30154 40162 52017 60001 333
55072 555 10080 29059=
40832 12960 30000 10150 20068 30154 40161 51020 60001 80001 333
55034 83070 555 10110 29058=
40833 12660 40000 10174 20131 30135 40167 52014 60001 84400 333
55037 2//// 84640 555 10150 29076=
40834 11557 70701 10146 20127 39800 40167 53008
60041 79598 87900 333 55012 20571 83930
84635 555 10135 29088=
99446 NIL=
99455 NIL=
99456 NIL=
99493 16/// /0607 10146 20082 39758 40173 50000 60001 333 55/// 20674 555 10113 29066=
99508 NIL=
99513 NIL=
99514 NIL=
99527 NIL=
99535 NIL=
99537 NIL=
99538 NIL=
اشکال در ساختار پیام یا گروه
خوزستان
40812
2017-12-15 18:00:00.0
SMIR40 OIAW 151800
AAXX 15181
40794 12660 80609 10139 20099 30077 40176 58002 60001 8452/ 333
55005 20907 84640 88459 555 10118 29077=
40810 11958 20604 10149 20108 30158 40167 51009 60021 70500 82030 333 55035 82360 555 10127 29076=
40811 12960 00605 10147 20098 30131 40157 55000 60001 333 55003 20438 555 10122 29073=
40812 11656 83603 10128 20101 39796 40175 58005 60151 76066
8492/ 55004 81935 83640 88557 555 10114 29083=
40813 16/// /0702 10144 20121 39985 40162 52014 333 55/// 555 10131 29086=
40831 12960 03502 10114 20037 30154 40162 52017 60001 333 55072 555 10080 29059=
40832 12960 30000 10150 20068 30154 40161 51020 60001 80001 333
55034 83070 555 10110 29058=
40833 12660 40000 10174 20131 30135 40167 52014 60001 84400 333 55037 2//// 84640 555 10150 29076=
40834 11557 70701 10146 20127 39800 40167 53008
60041 79598 87900 333 55012 20571 83930
84635 555 10135 29088=
99446 NIL=
99455 NIL=
99456 NIL=
99493 16/// /0607 10146 20082 39758 40173 50000 60001 333 55/// 20674 555 10113 29066=
99508 NIL=
99513 NIL=
99514 NIL=
99527 NIL=
99535 NIL=
99537 NIL=
99538 NIL=
اشکال در ساختار پیام یا گروه
خوزستان
40812
2017-12-15 18:00:00.0
SMIR40 OIAW 151800
AAXX 15181
40794 12660 80609 10139 20099 30077 40176 58002 60001 8452/ 333
55005 20907 84640 88459 555 10118 29077=
40810 11958 20604 10149 20108 30158 40167 51009 60021 70500 82030 333 55035 82360 555 10127 29076=
40811 12960 00605 10147 20098 30131 40157 55000 60001 333 55003 20438 555 10122 29073=
40812 11656 83603 10128 20101 39796 40175 58005 60151 76066
8492/ 55004 81935 83640 88557 555 10114 29083=
40813 16/// /0702 10144 20121 39985 40162 52014 333 55/// 555 10131 29086=
40831 12960 03502 10114 20037 30154 40162 52017 60001 333 55072 555 10080 29059=
40832 12960 30000 10150 20068 30154 40161 51020 60001 80001 333
55034 83070 555 10110 29058=
40833 12660 40000 10174 20131 30135 40167 52014 60001 84400 333 55037 2//// 84640 555 10150 29076=
40834 11557 70701 10146 20127 39800 40167 53008 60041 79598 87900 333 55012 20571 83930 84635 555 10135 29088=
99446 NIL=
99455 NIL=
99456 16/// /0803 10132 20085 30148 40151 52016 333 55/// 20146 555 10109 29073=
99493 16/// /0607 10146 20082 39758 40173 50000 60001 333 55/// 20674 555 10113 29066=
99508 NIL=
99513 NIL=
99514 16/// /0605 10151 20087 30093 40171 50003 333 55/// 555 10119 29066=
99527 16/// /3605 10047 20035 38560 40197 51009 333 55/// 555 10042 29092=
99535 NIL=
99537 16/// /0602 10154 20106 30167 40170 52016 333 55/// 555 10128 29073=
99538 16/// /1003 10177 20125 39958 40125 55027 333 55/// 555 10148 29072=
اشکال در ساختار پیام یا گروه
کرمان
99550
2017-12-15 18:00:00.0
SMIR40 OIKK 151800
AAXX 15181
40839 NIL=
40841 12660 33302 10068 21077 38272 40193 51006 60001 81430 333
55067 21286 81640 83362 555 10016 29035=
40843 NIL=
40849 12965 00000 10030 21020 38170 40181 52010 60001 333 55045
555 10010 29069=
40851 12660 50902 10086 21012 38296 40197 52014 60001 82470 333
55043 21123 82640 85460 555 10044 29050=
40852 NIL=
40853 12665 50000 10040 21023 37779 40214 52014 60001 83402 333
55080 83640 85070 555 10014 29063=
40854 12960 02702 10095 21088 38979 40187 52009 60001 333 55075
21357 555 10032 29027=
40877 12960 42404 10168 20081 39621 40167 52007 60001 80006 333
55090 84269 555 10123 29056=
88170 NIL=
88175 NIL=
88179 NIL=
88180 NIL=
99549 NIL=
99550 12962 50000 10120 20003 39388 40221 52005 60001 80008 333
55192 85270 555 10070 29045=
99562 12565 81703 10111 20002 38516 40196 52009 60001 8177/ 333
55063 88459 555 10063 29047=
ميزان ساعت آفتابي خارج از حد است (0-150)
هرمزگان
40883
2017-12-15 18:00:00.0
SMIR40 OIKB 151800
AAXX 15181
40863 12560 80000 10146 20059 39149 40211 52010 60001 8431/ 333
55058 81925 83630 88458 555 10103 29056=
40875 11557 60103 10172 20113 30189 40200 52009 60001 70521 82530
333 55020 29069 82625 85360 555 10140 29068=
40876 11956 40000 10174 20091 30172 40207 51009 60001 70521 84071
333 55024 20854 84459 555 10131 29058=
40880 11558 71303 10208 20156 30180 40190 51006 60001 71322 83970
333 55006 20469 82925 83630 87460 555 10177 29072=
40881 NIL=
40882 11557 50905 10216 20160 30155 40190 52008 60001 70511 83331
333 55038 81925 83358 555 10182 29070=
40883 11557 60804 10206 20144 30170 40193 52018 60001 72 84956 333
55063 21914 82925 83720 85360 86270 555 10170 29068=
40889 NIL=
40890 NIL=
40893 11956 00807 10221 20147 30197 40203 52009 60001 70500 333
55038 555 10177 29063=
99656 NIL=
99665 NIL=
99666 NIL=
99674 NIL=
99675 NIL=
99680 NIL=
اشکال در ساختار پیام یا گروه